Terminal Aerodrome Forecast
Issued by NWS North Platte, NE

Home | Current Version | Previous Version | Graphics & Text | Print | Product List | Glossary On
Versions: 1 2 3 4 5 6 7 8 9 10 11 12 13
000
FTUS43 KLBF 192320
TAFVTN
TAF
KVTN 192320Z 2000/2024 19013G20KT P6SM OVC150
     FM200900 22008KT P6SM BKN120
     FM201000 25008KT P6SM BKN120
     FM201400 30011G20KT P6SM SCT100
     FM201600 30015G24KT P6SM SCT100
     FM202300 26008KT P6SM SCT100=

USA.gov is the U.S. government's official web portal to all federal, state and local government web resources and services.